createdAt,value
2022-11-28T00:01:42.870Z,24.00
2022-11-28T00:04:12.562Z,20.88
2022-11-28T00:06:47.339Z,18.88
2022-11-28T00:09:16.679Z,22.55
2022-11-28T00:11:46.502Z,25.88
2022-11-28T00:14:15.758Z,18.38
2022-11-28T00:16:43.940Z,18.88
2022-11-28T00:19:14.008Z,27.38
2022-11-28T00:21:42.956Z,35.13
2022-11-28T00:24:11.472Z,21.58
2022-11-28T00:26:42.121Z,24.38
2022-11-28T00:29:11.236Z,29.30
2022-11-28T00:31:43.041Z,36.13
2022-11-28T00:34:13.798Z,26.48
2022-11-28T00:36:45.973Z,21.85
2022-11-28T00:41:43.188Z,19.52
2022-11-28T00:44:11.650Z,27.88
2022-11-28T00:46:40.475Z,26.38
2022-11-28T00:49:08.696Z,31.65
2022-11-28T00:51:37.197Z,23.73
2022-11-28T00:54:06.470Z,26.42
2022-11-28T00:56:41.167Z,28.00
2022-11-28T00:59:09.689Z,25.00
2022-11-28T01:01:41.631Z,33.53
2022-11-28T01:04:12.438Z,24.50
2022-11-28T01:06:44.158Z,26.27
2022-11-28T01:09:18.260Z,19.20
2022-11-28T01:11:47.534Z,23.88
2022-11-28T01:14:17.446Z,22.90
2022-11-28T01:16:45.744Z,36.80
2022-11-28T01:19:14.138Z,20.58
2022-11-28T01:21:42.578Z,20.08
2022-11-28T01:24:13.733Z,28.83
2022-11-28T01:26:42.703Z,23.60
2022-11-28T01:29:11.929Z,30.27
2022-11-28T01:31:40.124Z,25.45
2022-11-28T01:34:08.335Z,24.20
2022-11-28T01:36:36.695Z,20.13
2022-11-28T01:39:05.972Z,19.38
2022-11-28T01:41:34.166Z,28.52
2022-11-28T01:44:07.426Z,27.77
2022-11-28T01:46:36.930Z,27.40
2022-11-28T01:49:31.163Z,21.42
2022-11-28T01:52:09.857Z,18.10
2022-11-28T01:54:40.845Z,21.33
2022-11-28T01:57:29.897Z,27.25
2022-11-28T02:00:09.732Z,29.02
2022-11-28T02:02:50.301Z,20.80
2022-11-28T02:05:21.289Z,17.85
2022-11-28T02:07:50.878Z,16.58
2022-11-28T02:10:26.656Z,18.08
2022-11-28T02:13:07.742Z,22.33
2022-11-28T02:16:00.737Z,24.45
2022-11-28T02:18:32.002Z,16.73
2022-11-28T02:21:09.227Z,28.20
2022-11-28T02:24:05.297Z,23.38
2022-11-28T02:26:39.930Z,21.05
2022-11-28T02:29:56.003Z,16.55
2022-11-28T02:32:39.887Z,19.83
2022-11-28T02:35:31.872Z,15.82
2022-11-28T02:38:21.859Z,24.67
2022-11-28T02:41:39.124Z,25.52
2022-11-28T02:44:12.475Z,17.05
2022-11-28T02:47:03.346Z,22.55
2022-11-28T02:49:39.279Z,23.13
2022-11-28T02:52:13.563Z,22.83
2022-11-28T02:54:44.054Z,21.27
2022-11-28T02:57:12.597Z,24.83
2022-11-28T02:59:43.574Z,15.93
2022-11-28T03:02:26.597Z,26.75
2022-11-28T03:05:13.962Z,18.55
2022-11-28T03:08:01.944Z,25.60
2022-11-28T03:10:45.617Z,17.58
2022-11-28T03:13:38.940Z,23.10
2022-11-28T03:16:18.142Z,31.35
2022-11-28T03:18:55.473Z,29.63
2022-11-28T03:21:41.441Z,18.85
2022-11-28T03:24:25.446Z,26.92
2022-11-28T03:27:23.206Z,24.05
2022-11-28T03:29:56.139Z,27.23
2022-11-28T03:32:42.270Z,28.58
2022-11-28T03:35:18.779Z,27.20
2022-11-28T03:37:52.856Z,19.77
2022-11-28T03:40:29.690Z,23.58
2022-11-28T03:43:12.014Z,26.80
2022-11-28T03:45:45.557Z,20.05
2022-11-28T03:48:19.724Z,24.65
2022-11-28T03:51:08.292Z,25.08
2022-11-28T03:53:49.447Z,23.02
2022-11-28T03:56:40.179Z,26.77
2022-11-28T03:59:14.844Z,25.38
2022-11-28T04:02:04.369Z,21.15
2022-11-28T04:05:00.527Z,25.77
2022-11-28T04:07:51.106Z,18.50
2022-11-28T04:10:28.147Z,22.20
2022-11-28T04:13:01.957Z,18.95
2022-11-28T04:15:57.702Z,30.13
2022-11-28T04:18:37.084Z,19.10
2022-11-28T04:21:11.243Z,18.85
2022-11-28T04:23:42.855Z,15.43
2022-11-28T04:26:25.678Z,24.92
2022-11-28T04:28:55.419Z,17.38
2022-11-28T04:31:25.391Z,22.67
2022-11-28T04:33:58.853Z,30.65
2022-11-28T04:36:29.634Z,26.55
2022-11-28T04:39:00.321Z,26.45
2022-11-28T04:41:35.481Z,24.65
2022-11-28T04:44:15.842Z,19.95
2022-11-28T04:46:49.990Z,25.42
2022-11-28T04:49:18.422Z,31.17
2022-11-28T04:52:10.355Z,24.98
2022-11-28T04:54:53.946Z,26.73
2022-11-28T04:57:33.855Z,23.88
2022-11-28T05:00:06.124Z,21.25
2022-11-28T05:05:12.657Z,18.27
2022-11-28T05:07:41.041Z,29.65
2022-11-28T05:10:11.392Z,20.75
2022-11-28T05:12:39.776Z,29.73
2022-11-28T05:15:08.726Z,27.83
2022-11-28T05:17:41.882Z,21.38
2022-11-28T05:20:10.839Z,19.92
2022-11-28T05:22:39.044Z,27.33
2022-11-28T05:25:07.748Z,26.20
2022-11-28T05:27:36.187Z,29.50
2022-11-28T05:30:06.708Z,25.35
2022-11-28T05:32:34.875Z,26.30
2022-11-28T05:35:04.012Z,23.55
2022-11-28T05:42:46.877Z,34.53
2022-11-28T05:45:15.139Z,28.55
2022-11-28T05:47:43.542Z,28.30
2022-11-28T05:50:12.371Z,38.15
2022-11-28T05:52:40.603Z,25.27
2022-11-28T05:55:09.270Z,24.85
2022-11-28T05:57:37.408Z,26.33
2022-11-28T06:00:06.322Z,34.78
2022-11-28T06:02:39.494Z,28.73
2022-11-28T06:05:34.604Z,25.27
2022-11-28T06:07:56.362Z,35.28
2022-11-28T06:10:24.664Z,33.45
2022-11-28T06:12:53.107Z,27.73
2022-11-28T06:15:21.229Z,24.45
2022-11-28T06:17:49.461Z,25.15
2022-11-28T06:20:17.695Z,25.20
2022-11-28T06:22:47.679Z,24.40
2022-11-28T06:25:16.111Z,24.02
2022-11-28T06:27:44.276Z,25.48
2022-11-28T06:30:12.805Z,23.65
2022-11-28T06:32:41.033Z,29.63
2022-11-28T06:35:09.486Z,27.80
2022-11-28T06:37:37.690Z,32.20
2022-11-28T06:40:06.600Z,30.33
2022-11-28T06:42:36.478Z,34.42
2022-11-28T06:45:06.134Z,25.88
2022-11-28T06:47:34.229Z,33.63
2022-11-28T06:50:02.376Z,29.48
2022-11-28T06:52:30.623Z,37.75
2022-11-28T06:54:58.776Z,27.65
2022-11-28T06:57:27.180Z,35.33
2022-11-28T06:59:55.329Z,28.52
2022-11-28T07:02:23.488Z,20.90
2022-11-28T07:04:52.380Z,26.83
2022-11-28T07:07:20.788Z,29.63
2022-11-28T07:09:49.219Z,27.85
2022-11-28T07:12:17.819Z,27.75
2022-11-28T07:14:46.201Z,33.80
2022-11-28T07:17:14.496Z,24.15
2022-11-28T07:19:43.247Z,23.67
2022-11-28T07:22:12.290Z,30.27
2022-11-28T07:24:40.632Z,35.78
2022-11-28T07:27:08.741Z,22.30
2022-11-28T07:29:37.637Z,31.17
2022-11-28T07:32:07.172Z,23.13
2022-11-28T07:34:36.041Z,26.40
2022-11-28T07:37:04.499Z,27.90
2022-11-28T07:39:32.887Z,22.75
2022-11-28T07:42:01.238Z,32.80
2022-11-28T07:44:29.367Z,26.20
2022-11-28T07:46:57.870Z,25.67
2022-11-28T07:49:26.041Z,22.70
2022-11-28T07:51:57.384Z,20.27
2022-11-28T07:54:26.112Z,30.38
2022-11-28T07:57:12.432Z,20.10
2022-11-28T07:59:43.396Z,21.77
2022-11-28T08:02:12.504Z,17.38
2022-11-28T08:04:47.641Z,20.83
2022-11-28T08:07:17.935Z,16.52
2022-11-28T08:09:46.327Z,13.40
2022-11-28T08:12:14.576Z,20.27
2022-11-28T08:14:42.963Z,14.88
2022-11-28T08:17:11.363Z,18.50
2022-11-28T08:19:39.529Z,18.48
2022-11-28T08:22:07.774Z,14.52
2022-11-28T08:24:36.111Z,12.80
2022-11-28T08:27:04.563Z,14.52
2022-11-28T08:29:32.860Z,15.57
2022-11-28T08:32:01.177Z,15.85
2022-11-28T08:34:29.576Z,18.10
2022-11-28T08:36:57.949Z,23.70
2022-11-28T08:39:26.308Z,21.30
2022-11-28T08:41:56.289Z,14.73
2022-11-28T08:44:24.781Z,18.75
2022-11-28T08:46:53.593Z,14.07
2022-11-28T08:49:23.328Z,14.95
2022-11-28T08:51:51.897Z,18.45
2022-11-28T08:54:20.270Z,12.48
2022-11-28T08:56:49.134Z,28.40
2022-11-28T08:59:19.267Z,18.35
2022-11-28T09:01:48.005Z,10.38
2022-11-28T09:04:16.769Z,16.23
2022-11-28T09:06:45.314Z,14.65
2022-11-28T09:09:13.870Z,12.38
2022-11-28T09:11:43.503Z,13.68
2022-11-28T09:14:15.400Z,13.90
2022-11-28T09:16:44.399Z,11.60
2022-11-28T09:19:13.989Z,17.73
2022-11-28T09:21:42.820Z,13.10
2022-11-28T09:24:11.248Z,9.32
2022-11-28T09:26:44.547Z,9.07
2022-11-28T09:29:13.429Z,11.13
2022-11-28T09:31:47.164Z,19.65
2022-11-28T09:34:16.894Z,12.60
2022-11-28T09:36:45.905Z,10.20
2022-11-28T09:39:14.430Z,14.38
2022-11-28T09:41:59.625Z,10.95
2022-11-28T09:44:46.616Z,11.90
2022-11-28T09:47:28.966Z,10.48
2022-11-28T09:50:23.017Z,12.38
2022-11-28T09:53:01.756Z,20.27
2022-11-28T09:55:47.767Z,14.32
2022-11-28T09:58:23.802Z,13.25
2022-11-28T10:01:19.249Z,8.80
2022-11-28T10:04:13.645Z,14.13
2022-11-28T10:07:07.989Z,12.18
2022-11-28T10:10:04.474Z,19.60
2022-11-28T10:13:21.527Z,14.05
2022-11-28T10:16:20.088Z,14.38
2022-11-28T10:18:56.447Z,11.38
2022-11-28T10:21:25.369Z,13.30
2022-11-28T10:23:58.771Z,18.67
2022-11-28T10:26:36.254Z,17.75
2022-11-28T10:29:20.973Z,18.63
2022-11-28T10:31:55.792Z,16.50
2022-11-28T10:34:45.858Z,13.73
2022-11-28T10:37:32.337Z,21.83
2022-11-28T10:40:24.045Z,15.30
2022-11-28T10:42:53.206Z,14.98
2022-11-28T10:45:40.539Z,14.23
2022-11-28T10:48:38.493Z,11.02
2022-11-28T10:51:22.720Z,15.00
2022-11-28T10:54:10.289Z,12.13
2022-11-28T10:57:05.119Z,18.23
2022-11-28T10:59:48.208Z,19.65
2022-11-28T11:02:35.387Z,13.75
2022-11-28T11:05:07.061Z,91.15
2022-11-28T11:07:39.267Z,56.42
2022-11-28T11:10:23.839Z,44.55
2022-11-28T11:12:53.569Z,49.05
2022-11-28T11:15:29.826Z,65.82
2022-11-28T11:17:58.993Z,11.68
2022-11-28T11:20:34.654Z,19.83
2022-11-28T11:23:22.586Z,19.80
2022-11-28T11:25:55.777Z,13.52
2022-11-28T11:28:45.582Z,15.95
2022-11-28T11:31:32.555Z,23.58
2022-11-28T11:34:07.340Z,14.63
2022-11-28T11:36:38.120Z,18.85
2022-11-28T11:39:25.159Z,21.02
2022-11-28T11:42:03.361Z,17.92
2022-11-28T11:44:34.692Z,23.35
2022-11-28T11:47:05.707Z,18.33
2022-11-28T11:49:38.210Z,11.87
2022-11-28T11:52:12.355Z,17.02
2022-11-28T11:55:11.643Z,15.88
2022-11-28T11:57:53.502Z,21.90
2022-11-28T12:00:43.853Z,18.13
2022-11-28T12:03:31.968Z,13.85
2022-11-28T12:06:14.531Z,18.42
2022-11-28T12:08:54.129Z,14.77
2022-11-28T12:14:34.363Z,16.30
2022-11-28T12:17:58.878Z,12.45
2022-11-28T12:20:37.255Z,17.70
2022-11-28T12:23:17.035Z,15.07
2022-11-28T12:25:59.962Z,11.15
2022-11-28T12:28:38.852Z,16.48
2022-11-28T12:31:10.631Z,11.55
2022-11-28T12:36:33.785Z,21.35
2022-11-28T12:39:20.786Z,18.83
2022-11-28T12:42:02.531Z,17.20
2022-11-28T12:44:58.813Z,13.07
2022-11-28T12:47:43.924Z,23.45
2022-11-28T12:50:55.346Z,13.15
2022-11-28T12:53:50.389Z,14.95
2022-11-28T12:56:39.781Z,16.25
2022-11-28T12:59:23.948Z,9.85
2022-11-28T13:02:36.292Z,12.25
2022-11-28T13:05:28.003Z,9.35
2022-11-28T13:08:30.410Z,13.93
2022-11-28T13:11:02.077Z,7.78
2022-11-28T13:13:51.634Z,10.70
2022-11-28T13:16:35.166Z,12.05
2022-11-28T13:19:06.374Z,11.57
2022-11-28T13:21:40.851Z,21.30
2022-11-28T13:24:18.962Z,19.55
2022-11-28T13:27:05.781Z,22.20
2022-11-28T13:29:44.556Z,31.52
2022-11-28T13:32:22.033Z,17.38
2022-11-28T13:34:51.430Z,17.05
2022-11-28T13:40:46.542Z,22.55
2022-11-28T13:45:47.086Z,16.33
2022-11-28T13:51:36.530Z,8.02
2022-11-28T13:54:19.953Z,16.25
2022-11-28T13:57:05.533Z,17.90
2022-11-28T13:59:35.228Z,26.80
2022-11-28T14:02:16.170Z,17.67
2022-11-28T14:04:47.939Z,14.90
2022-11-28T14:07:47.735Z,10.40
2022-11-28T14:10:41.875Z,23.15
2022-11-28T14:13:24.649Z,10.38
2022-11-28T14:16:05.398Z,10.60
2022-11-28T14:18:57.222Z,9.43
2022-11-28T14:21:32.486Z,8.57
2022-11-28T14:24:28.940Z,12.40
2022-11-28T14:27:06.172Z,24.25
2022-11-28T14:29:41.774Z,11.00
2022-11-28T14:32:44.726Z,15.05
2022-11-28T14:35:51.149Z,15.52
2022-11-28T14:38:32.460Z,12.88
2022-11-28T14:41:05.022Z,9.68
2022-11-28T14:43:34.901Z,11.45
2022-11-28T14:46:22.072Z,16.25
2022-11-28T14:48:59.499Z,6.53
2022-11-28T14:51:46.570Z,11.65
2022-11-28T14:54:25.418Z,15.20
2022-11-28T14:56:59.597Z,10.13
2022-11-28T14:59:33.665Z,8.60
2022-11-28T15:02:24.237Z,15.88
2022-11-28T15:05:14.281Z,19.85
2022-11-28T15:08:17.558Z,15.80
2022-11-28T15:13:45.091Z,20.38
2022-11-28T15:16:18.098Z,11.75
2022-11-28T15:18:55.590Z,18.08
2022-11-28T15:21:24.428Z,16.65
2022-11-28T15:23:52.891Z,11.73
2022-11-28T15:26:27.941Z,13.02
2022-11-28T15:29:20.448Z,13.73
2022-11-28T15:31:53.124Z,18.42
2022-11-28T15:34:26.704Z,16.33
2022-11-28T15:37:19.448Z,21.02
2022-11-28T15:39:50.401Z,15.25
2022-11-28T15:42:32.157Z,14.25
2022-11-28T15:45:18.435Z,14.60
2022-11-28T15:47:47.570Z,10.18
2022-11-28T15:50:29.836Z,21.50
2022-11-28T15:53:02.879Z,18.58
2022-11-28T15:55:34.790Z,17.08
2022-11-28T15:58:24.561Z,17.35
2022-11-28T16:01:18.452Z,16.92
2022-11-28T16:04:17.151Z,10.80
2022-11-28T16:06:52.011Z,14.23
2022-11-28T16:09:20.337Z,28.30
2022-11-28T16:11:52.518Z,25.05
2022-11-28T16:14:30.363Z,14.77
2022-11-28T16:17:01.610Z,17.73
2022-11-28T16:19:36.883Z,21.20
2022-11-28T16:22:12.206Z,25.70
2022-11-28T16:24:47.903Z,16.42
2022-11-28T16:27:37.118Z,19.80
2022-11-28T16:30:26.369Z,14.50
2022-11-28T16:32:57.214Z,17.45
2022-11-28T16:35:29.189Z,12.70
2022-11-28T16:40:45.115Z,18.95
2022-11-28T16:43:40.999Z,19.98
2022-11-28T16:46:20.489Z,15.18
2022-11-28T16:48:58.167Z,14.38
2022-11-28T16:51:32.874Z,20.13
2022-11-28T16:54:22.264Z,13.82
2022-11-28T16:56:50.661Z,12.52
2022-11-28T16:59:21.137Z,19.05
2022-11-28T17:01:53.127Z,16.83
2022-11-28T17:06:51.888Z,13.70
2022-11-28T17:09:20.688Z,14.20
2022-11-28T17:12:26.074Z,11.68
2022-11-28T17:14:55.597Z,17.13
2022-11-28T17:17:24.816Z,16.00
2022-11-28T17:19:53.572Z,9.75
2022-11-28T17:22:27.332Z,9.15
2022-11-28T17:24:59.941Z,12.15
2022-11-28T17:27:28.624Z,12.07
2022-11-28T17:29:56.884Z,17.83
2022-11-28T17:32:25.722Z,15.65
2022-11-28T17:34:54.067Z,9.15
2022-11-28T17:37:22.261Z,5.85
2022-11-28T17:39:50.543Z,5.43
2022-11-28T17:42:18.622Z,8.48
2022-11-28T17:44:50.537Z,18.58
2022-11-28T17:47:18.937Z,9.27
2022-11-28T17:49:47.344Z,10.18
2022-11-28T17:52:17.213Z,13.90
2022-11-28T17:54:45.474Z,9.52
2022-11-28T17:57:13.709Z,9.57
2022-11-28T17:59:42.326Z,13.32
2022-11-28T18:02:12.040Z,11.10
2022-11-28T18:04:40.503Z,7.75
2022-11-28T18:07:09.109Z,8.02
2022-11-28T18:09:37.302Z,27.75
2022-11-28T18:12:06.359Z,9.30
2022-11-28T18:14:39.650Z,14.38
2022-11-28T18:17:08.996Z,16.92
2022-11-28T18:19:37.738Z,11.85
2022-11-28T18:22:06.503Z,34.95
2022-11-28T18:24:34.941Z,41.60
2022-11-28T18:27:03.257Z,32.17
2022-11-28T18:29:32.509Z,32.03
2022-11-28T18:32:01.000Z,31.67
2022-11-28T18:34:30.543Z,43.85
2022-11-28T18:36:59.204Z,26.35
2022-11-28T18:39:31.884Z,24.67
2022-11-28T18:42:01.555Z,24.17
2022-11-28T18:44:30.012Z,36.05
2022-11-28T18:46:58.428Z,27.58
2022-11-28T18:49:27.730Z,16.73
2022-11-28T18:51:59.015Z,16.98
2022-11-28T18:54:27.807Z,22.67
2022-11-28T18:56:56.272Z,23.48
2022-11-28T18:59:25.000Z,19.77
2022-11-28T19:01:53.707Z,73.47
2022-11-28T19:04:22.287Z,48.63
2022-11-28T19:06:50.736Z,29.42
2022-11-28T19:09:22.478Z,33.47
2022-11-28T19:11:51.044Z,26.60
2022-11-28T19:14:20.375Z,21.88
2022-11-28T19:16:48.943Z,27.88
2022-11-28T19:19:18.451Z,23.67
2022-11-28T19:21:49.703Z,17.85
2022-11-28T19:24:18.755Z,14.43
2022-11-28T19:26:47.342Z,24.88
2022-11-28T19:29:16.442Z,16.00
2022-11-28T19:31:45.323Z,12.32
2022-11-28T19:34:16.590Z,20.17
2022-11-28T19:39:19.625Z,13.35
2022-11-28T19:41:48.128Z,17.05
2022-11-28T19:44:20.325Z,13.13
2022-11-28T19:46:49.163Z,26.60
2022-11-28T19:49:23.011Z,15.52
2022-11-28T19:51:52.233Z,21.67
2022-11-28T19:54:21.186Z,21.98
2022-11-28T19:56:50.346Z,23.98
2022-11-28T19:59:22.187Z,23.00
2022-11-28T20:01:50.603Z,21.48
2022-11-28T20:04:19.080Z,15.13
2022-11-28T20:06:47.576Z,19.63
2022-11-28T20:09:15.884Z,18.52
2022-11-28T20:11:45.261Z,17.15
2022-11-28T20:14:16.705Z,22.60
2022-11-28T20:16:46.080Z,20.48
2022-11-28T20:19:15.688Z,26.95
2022-11-28T20:21:46.567Z,18.83
2022-11-28T20:24:15.884Z,18.75
2022-11-28T20:26:46.276Z,15.63
2022-11-28T20:29:16.413Z,13.40
2022-11-28T20:31:48.178Z,26.40
2022-11-28T20:34:18.365Z,24.50
2022-11-28T20:36:53.072Z,24.42
2022-11-28T20:39:22.006Z,21.25
2022-11-28T20:41:50.203Z,27.60
2022-11-28T20:44:19.300Z,30.85
2022-11-28T20:46:48.239Z,18.83
2022-11-28T20:49:16.860Z,17.80
2022-11-28T20:51:45.393Z,15.70
2022-11-28T20:54:14.716Z,32.75
2022-11-28T20:57:19.197Z,16.83
2022-11-28T20:59:32.088Z,20.20
2022-11-28T21:02:00.400Z,17.70
2022-11-28T21:04:28.606Z,26.70
2022-11-28T21:06:57.034Z,19.55
2022-11-28T21:09:25.285Z,20.15
2022-11-28T21:11:58.455Z,12.25
2022-11-28T21:14:28.960Z,30.75
2022-11-28T21:16:58.766Z,30.17
2022-11-28T21:19:27.031Z,46.97
2022-11-28T21:21:55.339Z,65.10
2022-11-28T21:24:23.757Z,47.10
2022-11-28T21:26:54.388Z,41.72
2022-11-28T21:29:24.274Z,58.22
2022-11-28T21:31:53.505Z,60.97
2022-11-28T21:34:22.200Z,54.42
2022-11-28T21:36:50.642Z,28.30
2022-11-28T21:39:20.965Z,38.25
2022-11-28T21:41:49.355Z,42.35
2022-11-28T21:44:17.900Z,37.67
2022-11-28T21:46:47.236Z,34.60
2022-11-28T21:49:15.915Z,33.25
2022-11-28T21:52:43.202Z,28.35
2022-11-28T21:55:11.900Z,19.05
2022-11-28T21:57:42.767Z,28.63
2022-11-28T22:00:31.325Z,23.60
2022-11-28T22:03:04.152Z,31.58
2022-11-28T22:05:35.727Z,29.80
2022-11-28T22:08:04.204Z,55.80
2022-11-28T22:10:32.504Z,27.58
2022-11-28T22:13:00.945Z,36.70
2022-11-28T22:15:29.348Z,32.10
2022-11-28T22:17:57.738Z,31.42
2022-11-28T22:20:26.128Z,26.95
2022-11-28T22:22:54.603Z,38.30
2022-11-28T22:25:23.429Z,34.17
2022-11-28T22:27:52.014Z,37.78
2022-11-28T22:30:20.462Z,42.67
2022-11-28T22:32:48.929Z,41.38
2022-11-28T22:35:17.741Z,43.97
2022-11-28T22:37:46.367Z,34.63
2022-11-28T22:40:15.698Z,39.05
2022-11-28T22:42:44.404Z,41.35
2022-11-28T22:45:12.895Z,35.95
2022-11-28T22:47:41.415Z,41.20
2022-11-28T22:50:10.308Z,42.92
2022-11-28T22:52:38.912Z,40.95
2022-11-28T22:55:07.734Z,42.65
2022-11-28T22:57:36.296Z,39.45
2022-11-28T23:00:07.735Z,40.58
2022-11-28T23:02:36.749Z,44.45
2022-11-28T23:05:05.567Z,47.05
2022-11-28T23:07:34.168Z,47.47
2022-11-28T23:10:02.914Z,53.15
2022-11-28T23:12:32.796Z,49.85
2022-11-28T23:15:01.121Z,40.13
2022-11-28T23:17:29.442Z,51.75
2022-11-28T23:19:57.916Z,45.35
2022-11-28T23:22:27.028Z,49.42
2022-11-28T23:24:56.568Z,53.45
2022-11-28T23:27:25.452Z,63.85
2022-11-28T23:29:54.530Z,55.53
2022-11-28T23:32:23.275Z,41.45
2022-11-28T23:34:52.046Z,54.88
2022-11-28T23:37:20.949Z,47.10
2022-11-28T23:39:49.323Z,53.63
2022-11-28T23:42:17.565Z,44.13
2022-11-28T23:44:46.156Z,49.83
2022-11-28T23:47:14.692Z,44.47
2022-11-28T23:49:42.899Z,54.95
2022-11-28T23:52:11.396Z,48.63
2022-11-28T23:54:39.722Z,48.70
2022-11-28T23:57:08.065Z,60.03
2022-11-28T23:59:36.447Z,58.97
